sensor_id;sensor_type;location;lat;lon;timestamp;pressure;altitude;pressure_sealevel;temperature
19948;BMP180;10135;50.702;7.276;2023-09-07T05:00:45;99817.00;;;22.00
19948;BMP180;10135;50.702;7.276;2023-09-07T05:02:46;99822.00;;;22.00
19948;BMP180;10135;50.702;7.276;2023-09-07T05:04:47;99810.00;;;22.00
19948;BMP180;10135;50.702;7.276;2023-09-07T05:06:48;99822.00;;;22.00
19948;BMP180;10135;50.702;7.276;2023-09-07T05:08:48;99824.00;;;22.00
19948;BMP180;10135;50.702;7.276;2023-09-07T05:10:49;99821.00;;;22.00
19948;BMP180;10135;50.702;7.276;2023-09-07T05:12:50;99821.00;;;22.00
19948;BMP180;10135;50.702;7.276;2023-09-07T05:14:50;99821.00;;;22.00
19948;BMP180;10135;50.702;7.276;2023-09-07T05:16:51;99822.00;;;21.90
19948;BMP180;10135;50.702;7.276;2023-09-07T05:18:52;99824.00;;;21.90
19948;BMP180;10135;50.702;7.276;2023-09-07T05:20:52;99819.00;;;21.90
19948;BMP180;10135;50.702;7.276;2023-09-07T05:22:53;99828.00;;;21.90
19948;BMP180;10135;50.702;7.276;2023-09-07T05:24:54;99825.00;;;21.90
19948;BMP180;10135;50.702;7.276;2023-09-07T05:26:54;99827.00;;;22.00
19948;BMP180;10135;50.702;7.276;2023-09-07T05:28:55;99828.00;;;22.00
19948;BMP180;10135;50.702;7.276;2023-09-07T05:30:56;99829.00;;;22.00
19948;BMP180;10135;50.702;7.276;2023-09-07T05:32:56;99828.00;;;22.00
19948;BMP180;10135;50.702;7.276;2023-09-07T05:34:57;99827.00;;;22.00
19948;BMP180;10135;50.702;7.276;2023-09-07T05:36:57;99826.00;;;22.00
19948;BMP180;10135;50.702;7.276;2023-09-07T05:39:01;99832.00;;;22.00
19948;BMP180;10135;50.702;7.276;2023-09-07T05:41:03;99831.00;;;22.00
19948;BMP180;10135;50.702;7.276;2023-09-07T05:43:04;99836.00;;;22.00
19948;BMP180;10135;50.702;7.276;2023-09-07T05:45:06;99834.00;;;22.00
19948;BMP180;10135;50.702;7.276;2023-09-07T05:47:07;99834.00;;;22.10
19948;BMP180;10135;50.702;7.276;2023-09-07T05:49:07;99833.00;;;22.10
19948;BMP180;10135;50.702;7.276;2023-09-07T05:51:08;99834.00;;;22.10
19948;BMP180;10135;50.702;7.276;2023-09-07T05:53:09;99831.00;;;22.20
19948;BMP180;10135;50.702;7.276;2023-09-07T05:55:09;99836.00;;;22.20
19948;BMP180;10135;50.702;7.276;2023-09-07T05:57:11;99830.00;;;22.30
19948;BMP180;10135;50.702;7.276;2023-09-07T05:59:11;99830.00;;;22.30
19948;BMP180;10135;50.702;7.276;2023-09-07T06:01:12;99827.00;;;22.40
19948;BMP180;10135;50.702;7.276;2023-09-07T06:03:13;99824.00;;;22.50
19948;BMP180;10135;50.702;7.276;2023-09-07T06:05:14;99824.00;;;22.50
19948;BMP180;10135;50.702;7.276;2023-09-07T06:07:15;99831.00;;;22.60
19948;BMP180;10135;50.702;7.276;2023-09-07T06:09:15;99830.00;;;22.70
19948;BMP180;10135;50.702;7.276;2023-09-07T06:11:16;99834.00;;;22.70
19948;BMP180;10135;50.702;7.276;2023-09-07T06:13:16;99838.00;;;22.80
19948;BMP180;10135;50.702;7.276;2023-09-07T06:15:17;99848.00;;;22.90
19948;BMP180;10135;50.702;7.276;2023-09-07T06:17:18;99847.00;;;23.00
19948;BMP180;10135;50.702;7.276;2023-09-07T06:19:19;99848.00;;;23.10
19948;BMP180;10135;50.702;7.276;2023-09-07T06:21:20;99849.00;;;23.10
19948;BMP180;10135;50.702;7.276;2023-09-07T06:23:21;99849.00;;;23.20
19948;BMP180;10135;50.702;7.276;2023-09-07T06:25:21;99850.00;;;23.20
19948;BMP180;10135;50.702;7.276;2023-09-07T06:27:22;99856.00;;;23.30
19948;BMP180;10135;50.702;7.276;2023-09-07T06:29:23;99855.00;;;23.30
19948;BMP180;10135;50.702;7.276;2023-09-07T06:31:24;99859.00;;;23.40
19948;BMP180;10135;50.702;7.276;2023-09-07T06:33:24;99857.00;;;23.40
19948;BMP180;10135;50.702;7.276;2023-09-07T06:35:25;99856.00;;;23.40
19948;BMP180;10135;50.702;7.276;2023-09-07T06:37:26;99859.00;;;23.40
19948;BMP180;10135;50.702;7.276;2023-09-07T06:39:26;99865.00;;;23.40
19948;BMP180;10135;50.702;7.276;2023-09-07T06:41:27;99860.00;;;23.50
19948;BMP180;10135;50.702;7.276;2023-09-07T06:43:28;99868.00;;;23.50
19948;BMP180;10135;50.702;7.276;2023-09-07T06:45:35;99864.00;;;23.50
19948;BMP180;10135;50.702;7.276;2023-09-07T06:47:36;99865.00;;;23.50
19948;BMP180;10135;50.702;7.276;2023-09-07T06:49:39;99862.00;;;23.50
19948;BMP180;10135;50.702;7.276;2023-09-07T06:51:40;99864.00;;;23.60
19948;BMP180;10135;50.702;7.276;2023-09-07T06:53:41;99865.00;;;23.60
19948;BMP180;10135;50.702;7.276;2023-09-07T06:55:41;99868.00;;;23.60
19948;BMP180;10135;50.702;7.276;2023-09-07T06:57:42;99870.00;;;23.70
19948;BMP180;10135;50.702;7.276;2023-09-07T06:59:43;99870.00;;;23.70
19948;BMP180;10135;50.702;7.276;2023-09-07T07:01:43;99871.00;;;23.70
19948;BMP180;10135;50.702;7.276;2023-09-07T07:03:44;99873.00;;;23.70
19948;BMP180;10135;50.702;7.276;2023-09-07T07:05:45;99876.00;;;23.70
19948;BMP180;10135;50.702;7.276;2023-09-07T07:07:45;99878.00;;;23.80
19948;BMP180;10135;50.702;7.276;2023-09-07T07:09:46;99870.00;;;23.80
19948;BMP180;10135;50.702;7.276;2023-09-07T07:11:47;99877.00;;;23.80
19948;BMP180;10135;50.702;7.276;2023-09-07T07:13:47;99880.00;;;23.90
19948;BMP180;10135;50.702;7.276;2023-09-07T07:15:48;99875.00;;;23.90
19948;BMP180;10135;50.702;7.276;2023-09-07T07:17:48;99879.00;;;23.90
19948;BMP180;10135;50.702;7.276;2023-09-07T07:19:49;99879.00;;;24.00
19948;BMP180;10135;50.702;7.276;2023-09-07T07:21:50;99879.00;;;24.00
19948;BMP180;10135;50.702;7.276;2023-09-07T07:23:50;99875.00;;;24.00
19948;BMP180;10135;50.702;7.276;2023-09-07T07:25:51;99883.00;;;24.10
19948;BMP180;10135;50.702;7.276;2023-09-07T07:27:52;99879.00;;;24.10
19948;BMP180;10135;50.702;7.276;2023-09-07T07:29:53;99884.00;;;24.10
19948;BMP180;10135;50.702;7.276;2023-09-07T07:31:53;99887.00;;;24.20
19948;BMP180;10135;50.702;7.276;2023-09-07T07:33:54;99883.00;;;24.20
19948;BMP180;10135;50.702;7.276;2023-09-07T07:35:55;99884.00;;;24.20
19948;BMP180;10135;50.702;7.276;2023-09-07T07:37:56;99886.00;;;24.30
19948;BMP180;10135;50.702;7.276;2023-09-07T07:39:57;99895.00;;;24.30
19948;BMP180;10135;50.702;7.276;2023-09-07T07:41:57;99896.00;;;24.40
19948;BMP180;10135;50.702;7.276;2023-09-07T07:43:58;99895.00;;;24.40
19948;BMP180;10135;50.702;7.276;2023-09-07T07:45:59;99896.00;;;24.50
19948;BMP180;10135;50.702;7.276;2023-09-07T07:47:59;99903.00;;;24.50
19948;BMP180;10135;50.702;7.276;2023-09-07T07:50:00;99897.00;;;24.60
19948;BMP180;10135;50.702;7.276;2023-09-07T07:52:01;99897.00;;;24.60
19948;BMP180;10135;50.702;7.276;2023-09-07T07:54:01;99901.00;;;24.60
19948;BMP180;10135;50.702;7.276;2023-09-07T07:56:02;99904.00;;;24.60
19948;BMP180;10135;50.702;7.276;2023-09-07T07:58:05;99901.00;;;24.70
19948;BMP180;10135;50.702;7.276;2023-09-07T08:00:08;99897.00;;;24.70
19948;BMP180;10135;50.702;7.276;2023-09-07T08:02:09;99894.00;;;24.70
19948;BMP180;10135;50.702;7.276;2023-09-07T08:04:10;99890.00;;;24.80
19948;BMP180;10135;50.702;7.276;2023-09-07T08:06:12;99888.00;;;24.80
19948;BMP180;10135;50.702;7.276;2023-09-07T08:08:13;99893.00;;;24.80
19948;BMP180;10135;50.702;7.276;2023-09-07T08:10:13;99889.00;;;24.80
19948;BMP180;10135;50.702;7.276;2023-09-07T08:12:14;99893.00;;;24.90
19948;BMP180;10135;50.702;7.276;2023-09-07T08:14:15;99890.00;;;24.90
19948;BMP180;10135;50.702;7.276;2023-09-07T08:16:15;99886.00;;;24.90
19948;BMP180;10135;50.702;7.276;2023-09-07T08:18:17;99897.00;;;25.00
19948;BMP180;10135;50.702;7.276;2023-09-07T08:20:18;99890.00;;;25.00
19948;BMP180;10135;50.702;7.276;2023-09-07T08:22:19;99897.00;;;25.00
19948;BMP180;10135;50.702;7.276;2023-09-07T08:24:20;99893.00;;;25.00
19948;BMP180;10135;50.702;7.276;2023-09-07T08:26:21;99893.00;;;25.10
19948;BMP180;10135;50.702;7.276;2023-09-07T08:28:22;99891.00;;;25.10
19948;BMP180;10135;50.702;7.276;2023-09-07T08:30:23;99891.00;;;25.20
19948;BMP180;10135;50.702;7.276;2023-09-07T08:32:25;99889.00;;;25.20
19948;BMP180;10135;50.702;7.276;2023-09-07T08:34:26;99882.00;;;25.20
19948;BMP180;10135;50.702;7.276;2023-09-07T08:36:26;99882.00;;;25.30
19948;BMP180;10135;50.702;7.276;2023-09-07T08:38:28;99880.00;;;25.30
19948;BMP180;10135;50.702;7.276;2023-09-07T08:40:31;99888.00;;;25.40
19948;BMP180;10135;50.702;7.276;2023-09-07T08:42:38;99886.00;;;25.40
19948;BMP180;10135;50.702;7.276;2023-09-07T08:44:42;99888.00;;;25.40
19948;BMP180;10135;50.702;7.276;2023-09-07T08:46:43;99883.00;;;25.50
19948;BMP180;10135;50.702;7.276;2023-09-07T08:48:45;99887.00;;;25.50
19948;BMP180;10135;50.702;7.276;2023-09-07T08:50:47;99886.00;;;25.60
19948;BMP180;10135;50.702;7.276;2023-09-07T08:52:54;99878.00;;;25.70
19948;BMP180;10135;50.702;7.276;2023-09-07T08:54:56;99884.00;;;25.70
19948;BMP180;10135;50.702;7.276;2023-09-07T08:57:02;99884.00;;;25.80
19948;BMP180;10135;50.702;7.276;2023-09-07T08:59:04;99883.00;;;25.80
19948;BMP180;10135;50.702;7.276;2023-09-07T09:01:05;99881.00;;;25.90
19948;BMP180;10135;50.702;7.276;2023-09-07T09:03:06;99885.00;;;25.90
19948;BMP180;10135;50.702;7.276;2023-09-07T09:05:09;99882.00;;;26.00
19948;BMP180;10135;50.702;7.276;2023-09-07T09:07:11;99888.00;;;26.10
19948;BMP180;10135;50.702;7.276;2023-09-07T09:09:25;99885.00;;;26.10
19948;BMP180;10135;50.702;7.276;2023-09-07T09:11:26;99883.00;;;26.20
19948;BMP180;10135;50.702;7.276;2023-09-07T09:13:30;99879.00;;;26.20
19948;BMP180;10135;50.702;7.276;2023-09-07T09:15:31;99880.00;;;26.30
19948;BMP180;10135;50.702;7.276;2023-09-07T09:17:32;99878.00;;;26.30
19948;BMP180;10135;50.702;7.276;2023-09-07T09:19:35;99877.00;;;26.40
19948;BMP180;10135;50.702;7.276;2023-09-07T09:21:36;99880.00;;;26.40
19948;BMP180;10135;50.702;7.276;2023-09-07T09:23:37;99870.00;;;26.50
19948;BMP180;10135;50.702;7.276;2023-09-07T09:25:40;99870.00;;;26.50
19948;BMP180;10135;50.702;7.276;2023-09-07T09:27:42;99875.00;;;26.60
19948;BMP180;10135;50.702;7.276;2023-09-07T09:29:43;99872.00;;;26.60
19948;BMP180;10135;50.702;7.276;2023-09-07T09:31:45;99869.00;;;26.70
19948;BMP180;10135;50.702;7.276;2023-09-07T09:33:49;99873.00;;;26.70
19948;BMP180;10135;50.702;7.276;2023-09-07T09:35:54;99869.00;;;26.80
19948;BMP180;10135;50.702;7.276;2023-09-07T09:37:55;99870.00;;;26.80
19948;BMP180;10135;50.702;7.276;2023-09-07T09:39:57;99869.00;;;26.90
19948;BMP180;10135;50.702;7.276;2023-09-07T09:41:59;99862.00;;;26.90
19948;BMP180;10135;50.702;7.276;2023-09-07T09:44:05;99865.00;;;27.00
19948;BMP180;10135;50.702;7.276;2023-09-07T09:46:08;99866.00;;;27.10
19948;BMP180;10135;50.702;7.276;2023-09-07T09:48:09;99866.00;;;27.10
19948;BMP180;10135;50.702;7.276;2023-09-07T09:50:11;99865.00;;;27.20
19948;BMP180;10135;50.702;7.276;2023-09-07T09:52:13;99863.00;;;27.20
19948;BMP180;10135;50.702;7.276;2023-09-07T09:54:19;99855.00;;;27.30
19948;BMP180;10135;50.702;7.276;2023-09-07T09:56:19;99855.00;;;27.40
19948;BMP180;10135;50.702;7.276;2023-09-07T09:58:21;99859.00;;;27.50
19948;BMP180;10135;50.702;7.276;2023-09-07T10:00:21;99859.00;;;27.50
19948;BMP180;10135;50.702;7.276;2023-09-07T10:02:29;99848.00;;;27.60
19948;BMP180;10135;50.702;7.276;2023-09-07T10:04:31;99845.00;;;27.70
19948;BMP180;10135;50.702;7.276;2023-09-07T10:06:33;99842.00;;;27.70
19948;BMP180;10135;50.702;7.276;2023-09-07T10:08:34;99843.00;;;27.80
19948;BMP180;10135;50.702;7.276;2023-09-07T10:10:36;99842.00;;;27.80
19948;BMP180;10135;50.702;7.276;2023-09-07T10:12:50;99839.00;;;27.80
19948;BMP180;10135;50.702;7.276;2023-09-07T10:14:51;99839.00;;;27.90
19948;BMP180;10135;50.702;7.276;2023-09-07T10:16:54;99833.00;;;28.00
19948;BMP180;10135;50.702;7.276;2023-09-07T10:18:59;99828.00;;;28.00
19948;BMP180;10135;50.702;7.276;2023-09-07T10:21:00;99832.00;;;28.00
19948;BMP180;10135;50.702;7.276;2023-09-07T10:23:04;99830.00;;;28.10
19948;BMP180;10135;50.702;7.276;2023-09-07T10:25:05;99831.00;;;28.10
19948;BMP180;10135;50.702;7.276;2023-09-07T10:27:09;99837.00;;;28.20
19948;BMP180;10135;50.702;7.276;2023-09-07T10:29:13;99836.00;;;28.20
19948;BMP180;10135;50.702;7.276;2023-09-07T10:31:18;99829.00;;;28.30
19948;BMP180;10135;50.702;7.276;2023-09-07T10:33:20;99830.00;;;28.40
19948;BMP180;10135;50.702;7.276;2023-09-07T10:35:21;99835.00;;;28.40
19948;BMP180;10135;50.702;7.276;2023-09-07T10:37:29;99828.00;;;28.50
19948;BMP180;10135;50.702;7.276;2023-09-07T10:39:32;99827.00;;;28.50
19948;BMP180;10135;50.702;7.276;2023-09-07T10:41:44;99826.00;;;28.50
19948;BMP180;10135;50.702;7.276;2023-09-07T10:43:54;99817.00;;;28.60
19948;BMP180;10135;50.702;7.276;2023-09-07T10:45:56;99812.00;;;28.70
19948;BMP180;10135;50.702;7.276;2023-09-07T10:47:57;99808.00;;;28.80
19948;BMP180;10135;50.702;7.276;2023-09-07T10:49:58;99818.00;;;28.80
19948;BMP180;10135;50.702;7.276;2023-09-07T10:51:58;99820.00;;;28.90
19948;BMP180;10135;50.702;7.276;2023-09-07T10:53:59;99818.00;;;29.00
19948;BMP180;10135;50.702;7.276;2023-09-07T10:56:04;99819.00;;;29.00
19948;BMP180;10135;50.702;7.276;2023-09-07T10:58:05;99820.00;;;29.10
19948;BMP180;10135;50.702;7.276;2023-09-07T11:00:06;99807.00;;;29.10
19948;BMP180;10135;50.702;7.276;2023-09-07T11:02:11;99809.00;;;29.10
19948;BMP180;10135;50.702;7.276;2023-09-07T11:04:11;99801.00;;;29.20
19948;BMP180;10135;50.702;7.276;2023-09-07T11:06:17;99806.00;;;29.20
19948;BMP180;10135;50.702;7.276;2023-09-07T11:08:19;99803.00;;;29.30
19948;BMP180;10135;50.702;7.276;2023-09-07T11:10:20;99801.00;;;29.30
19948;BMP180;10135;50.702;7.276;2023-09-07T11:12:21;99801.00;;;29.40
19948;BMP180;10135;50.702;7.276;2023-09-07T11:14:22;99797.00;;;29.40
19948;BMP180;10135;50.702;7.276;2023-09-07T11:16:25;99791.00;;;29.40
19948;BMP180;10135;50.702;7.276;2023-09-07T11:18:29;99790.00;;;29.50
19948;BMP180;10135;50.702;7.276;2023-09-07T11:20:30;99788.00;;;29.50
19948;BMP180;10135;50.702;7.276;2023-09-07T11:22:32;99788.00;;;29.60
19948;BMP180;10135;50.702;7.276;2023-09-07T11:24:34;99784.00;;;29.70
19948;BMP180;10135;50.702;7.276;2023-09-07T11:26:46;99786.00;;;29.70
19948;BMP180;10135;50.702;7.276;2023-09-07T11:28:47;99781.00;;;29.80
19948;BMP180;10135;50.702;7.276;2023-09-07T11:30:54;99785.00;;;29.80
19948;BMP180;10135;50.702;7.276;2023-09-07T11:33:06;99789.00;;;29.80
19948;BMP180;10135;50.702;7.276;2023-09-07T11:35:07;99788.00;;;29.80
19948;BMP180;10135;50.702;7.276;2023-09-07T11:37:09;99787.00;;;29.90
19948;BMP180;10135;50.702;7.276;2023-09-07T11:39:10;99789.00;;;29.90
19948;BMP180;10135;50.702;7.276;2023-09-07T11:41:14;99781.00;;;29.90
19948;BMP180;10135;50.702;7.276;2023-09-07T11:43:16;99786.00;;;30.00
19948;BMP180;10135;50.702;7.276;2023-09-07T11:45:19;99791.00;;;30.00
19948;BMP180;10135;50.702;7.276;2023-09-07T11:47:20;99788.00;;;30.00
19948;BMP180;10135;50.702;7.276;2023-09-07T11:49:20;99787.00;;;30.10
19948;BMP180;10135;50.702;7.276;2023-09-07T11:51:22;99785.00;;;30.10
19948;BMP180;10135;50.702;7.276;2023-09-07T11:53:22;99776.00;;;30.10
19948;BMP180;10135;50.702;7.276;2023-09-07T11:55:23;99783.00;;;30.20
19948;BMP180;10135;50.702;7.276;2023-09-07T11:57:24;99783.00;;;30.20
19948;BMP180;10135;50.702;7.276;2023-09-07T11:59:25;99781.00;;;30.30
19948;BMP180;10135;50.702;7.276;2023-09-07T12:01:26;99776.00;;;30.30
19948;BMP180;10135;50.702;7.276;2023-09-07T12:03:27;99781.00;;;30.30
19948;BMP180;10135;50.702;7.276;2023-09-07T12:05:30;99778.00;;;30.40
19948;BMP180;10135;50.702;7.276;2023-09-07T12:07:31;99780.00;;;30.40
19948;BMP180;10135;50.702;7.276;2023-09-07T12:09:32;99779.00;;;30.40
19948;BMP180;10135;50.702;7.276;2023-09-07T12:11:33;99776.00;;;30.50
19948;BMP180;10135;50.702;7.276;2023-09-07T12:13:34;99776.00;;;30.50
19948;BMP180;10135;50.702;7.276;2023-09-07T12:15:34;99770.00;;;30.60
19948;BMP180;10135;50.702;7.276;2023-09-07T12:17:35;99773.00;;;30.60
19948;BMP180;10135;50.702;7.276;2023-09-07T12:19:36;99767.00;;;30.60
19948;BMP180;10135;50.702;7.276;2023-09-07T12:21:37;99776.00;;;30.70
19948;BMP180;10135;50.702;7.276;2023-09-07T12:23:37;99770.00;;;30.70
19948;BMP180;10135;50.702;7.276;2023-09-07T12:25:38;99770.00;;;30.70
19948;BMP180;10135;50.702;7.276;2023-09-07T12:27:39;99768.00;;;30.70
19948;BMP180;10135;50.702;7.276;2023-09-07T12:29:39;99769.00;;;30.80
19948;BMP180;10135;50.702;7.276;2023-09-07T12:31:40;99764.00;;;30.80
19948;BMP180;10135;50.702;7.276;2023-09-07T12:33:41;99761.00;;;30.80
19948;BMP180;10135;50.702;7.276;2023-09-07T12:35:41;99760.00;;;30.90
19948;BMP180;10135;50.702;7.276;2023-09-07T12:37:42;99761.00;;;30.90
19948;BMP180;10135;50.702;7.276;2023-09-07T12:39:43;99758.00;;;30.90
19948;BMP180;10135;50.702;7.276;2023-09-07T12:41:43;99756.00;;;31.00
19948;BMP180;10135;50.702;7.276;2023-09-07T12:43:44;99754.00;;;31.00
19948;BMP180;10135;50.702;7.276;2023-09-07T12:45:46;99756.00;;;31.00
19948;BMP180;10135;50.702;7.276;2023-09-07T12:47:50;99758.00;;;31.00
19948;BMP180;10135;50.702;7.276;2023-09-07T12:49:50;99756.00;;;31.10
19948;BMP180;10135;50.702;7.276;2023-09-07T12:51:51;99761.00;;;31.10
19948;BMP180;10135;50.702;7.276;2023-09-07T12:53:52;99752.00;;;31.10
19948;BMP180;10135;50.702;7.276;2023-09-07T12:55:53;99751.00;;;31.10
19948;BMP180;10135;50.702;7.276;2023-09-07T12:57:54;99750.00;;;31.20
19948;BMP180;10135;50.702;7.276;2023-09-07T12:59:55;99746.00;;;31.20
19948;BMP180;10135;50.702;7.276;2023-09-07T13:01:55;99754.00;;;31.20
19948;BMP180;10135;50.702;7.276;2023-09-07T13:03:56;99744.00;;;31.30
19948;BMP180;10135;50.702;7.276;2023-09-07T13:05:57;99740.00;;;31.30
19948;BMP180;10135;50.702;7.276;2023-09-07T13:07:58;99742.00;;;31.40
19948;BMP180;10135;50.702;7.276;2023-09-07T13:09:59;99740.00;;;31.40
19948;BMP180;10135;50.702;7.276;2023-09-07T13:12:05;99738.00;;;31.40
19948;BMP180;10135;50.702;7.276;2023-09-07T13:14:05;99739.00;;;31.50
19948;BMP180;10135;50.702;7.276;2023-09-07T13:16:08;99735.00;;;31.50
19948;BMP180;10135;50.702;7.276;2023-09-07T13:18:10;99737.00;;;31.50
19948;BMP180;10135;50.702;7.276;2023-09-07T13:20:11;99739.00;;;31.50
19948;BMP180;10135;50.702;7.276;2023-09-07T13:22:12;99735.00;;;31.50
19948;BMP180;10135;50.702;7.276;2023-09-07T13:24:13;99730.00;;;31.50
19948;BMP180;10135;50.702;7.276;2023-09-07T13:26:14;99729.00;;;31.50
19948;BMP180;10135;50.702;7.276;2023-09-07T13:28:14;99729.00;;;31.60
19948;BMP180;10135;50.702;7.276;2023-09-07T13:30:15;99726.00;;;31.60
19948;BMP180;10135;50.702;7.276;2023-09-07T13:32:16;99727.00;;;31.60
19948;BMP180;10135;50.702;7.276;2023-09-07T13:34:17;99719.00;;;31.60
19948;BMP180;10135;50.702;7.276;2023-09-07T13:36:18;99713.00;;;31.60
19948;BMP180;10135;50.702;7.276;2023-09-07T13:38:19;99717.00;;;31.60
19948;BMP180;10135;50.702;7.276;2023-09-07T13:40:19;99711.00;;;31.70
19948;BMP180;10135;50.702;7.276;2023-09-07T13:42:25;99713.00;;;31.70
19948;BMP180;10135;50.702;7.276;2023-09-07T13:44:27;99711.00;;;31.70
19948;BMP180;10135;50.702;7.276;2023-09-07T13:46:28;99706.00;;;31.70
19948;BMP180;10135;50.702;7.276;2023-09-07T13:48:29;99711.00;;;31.80
19948;BMP180;10135;50.702;7.276;2023-09-07T13:50:30;99702.00;;;31.80
19948;BMP180;10135;50.702;7.276;2023-09-07T13:52:31;99706.00;;;31.80
19948;BMP180;10135;50.702;7.276;2023-09-07T13:54:32;99701.00;;;31.80
19948;BMP180;10135;50.702;7.276;2023-09-07T13:56:33;99702.00;;;31.80
19948;BMP180;10135;50.702;7.276;2023-09-07T13:58:33;99698.00;;;31.80
19948;BMP180;10135;50.702;7.276;2023-09-07T14:00:34;99707.00;;;31.80
19948;BMP180;10135;50.702;7.276;2023-09-07T14:02:35;99699.00;;;31.80
19948;BMP180;10135;50.702;7.276;2023-09-07T14:04:35;99700.00;;;31.70
19948;BMP180;10135;50.702;7.276;2023-09-07T14:06:36;99703.00;;;31.70
19948;BMP180;10135;50.702;7.276;2023-09-07T14:08:37;99698.00;;;31.70
19948;BMP180;10135;50.702;7.276;2023-09-07T14:10:37;99697.00;;;31.70
19948;BMP180;10135;50.702;7.276;2023-09-07T14:12:38;99700.00;;;31.70
19948;BMP180;10135;50.702;7.276;2023-09-07T14:14:38;99696.00;;;31.70
19948;BMP180;10135;50.702;7.276;2023-09-07T14:16:39;99697.00;;;31.70
19948;BMP180;10135;50.702;7.276;2023-09-07T14:18:40;99695.00;;;31.70
19948;BMP180;10135;50.702;7.276;2023-09-07T14:20:40;99696.00;;;31.60
19948;BMP180;10135;50.702;7.276;2023-09-07T14:22:42;99687.00;;;31.60
19948;BMP180;10135;50.702;7.276;2023-09-07T14:24:42;99692.00;;;31.60
19948;BMP180;10135;50.702;7.276;2023-09-07T14:26:43;99697.00;;;31.60
19948;BMP180;10135;50.702;7.276;2023-09-07T14:28:44;99697.00;;;31.60
19948;BMP180;10135;50.702;7.276;2023-09-07T14:30:44;99691.00;;;31.60
19948;BMP180;10135;50.702;7.276;2023-09-07T14:32:45;99685.00;;;31.60
19948;BMP180;10135;50.702;7.276;2023-09-07T14:34:47;99685.00;;;31.60
19948;BMP180;10135;50.702;7.276;2023-09-07T14:36:48;99687.00;;;31.60
19948;BMP180;10135;50.702;7.276;2023-09-07T14:38:48;99691.00;;;31.60
19948;BMP180;10135;50.702;7.276;2023-09-07T14:40:49;99682.00;;;31.50
19948;BMP180;10135;50.702;7.276;2023-09-07T14:42:51;99690.00;;;31.50
19948;BMP180;10135;50.702;7.276;2023-09-07T14:44:51;99690.00;;;31.50
19948;BMP180;10135;50.702;7.276;2023-09-07T14:46:53;99690.00;;;31.50
19948;BMP180;10135;50.702;7.276;2023-09-07T14:48:54;99687.00;;;31.50
19948;BMP180;10135;50.702;7.276;2023-09-07T14:50:55;99693.00;;;31.40
19948;BMP180;10135;50.702;7.276;2023-09-07T14:52:55;99694.00;;;31.40
19948;BMP180;10135;50.702;7.276;2023-09-07T14:54:56;99696.00;;;31.40
19948;BMP180;10135;50.702;7.276;2023-09-07T14:56:57;99693.00;;;31.40
19948;BMP180;10135;50.702;7.276;2023-09-07T14:58:57;99700.00;;;31.40
19948;BMP180;10135;50.702;7.276;2023-09-07T15:00:58;99694.00;;;31.40
19948;BMP180;10135;50.702;7.276;2023-09-07T15:03:00;99689.00;;;31.40
19948;BMP180;10135;50.702;7.276;2023-09-07T15:05:01;99694.00;;;31.40
19948;BMP180;10135;50.702;7.276;2023-09-07T15:07:01;99692.00;;;31.30
19948;BMP180;10135;50.702;7.276;2023-09-07T15:09:03;99690.00;;;31.30
19948;BMP180;10135;50.702;7.276;2023-09-07T15:11:04;99693.00;;;31.30
19948;BMP180;10135;50.702;7.276;2023-09-07T15:13:05;99689.00;;;31.30
19948;BMP180;10135;50.702;7.276;2023-09-07T15:15:08;99689.00;;;31.30
19948;BMP180;10135;50.702;7.276;2023-09-07T15:17:09;99692.00;;;31.30
19948;BMP180;10135;50.702;7.276;2023-09-07T15:19:11;99688.00;;;31.30
19948;BMP180;10135;50.702;7.276;2023-09-07T15:21:11;99689.00;;;31.20
19948;BMP180;10135;50.702;7.276;2023-09-07T15:23:12;99690.00;;;31.20
19948;BMP180;10135;50.702;7.276;2023-09-07T15:25:13;99693.00;;;31.20
19948;BMP180;10135;50.702;7.276;2023-09-07T15:27:13;99693.00;;;31.10
19948;BMP180;10135;50.702;7.276;2023-09-07T15:29:14;99691.00;;;31.10
19948;BMP180;10135;50.702;7.276;2023-09-07T15:31:15;99686.00;;;31.10
19948;BMP180;10135;50.702;7.276;2023-09-07T15:33:15;99689.00;;;31.10
19948;BMP180;10135;50.702;7.276;2023-09-07T15:35:17;99689.00;;;31.10
19948;BMP180;10135;50.702;7.276;2023-09-07T15:37:18;99688.00;;;31.00
19948;BMP180;10135;50.702;7.276;2023-09-07T15:39:18;99696.00;;;31.00
19948;BMP180;10135;50.702;7.276;2023-09-07T15:41:19;99676.00;;;31.00
19948;BMP180;10135;50.702;7.276;2023-09-07T15:43:19;99681.00;;;31.00
19948;BMP180;10135;50.702;7.276;2023-09-07T15:45:20;99679.00;;;31.00
19948;BMP180;10135;50.702;7.276;2023-09-07T15:47:21;99681.00;;;30.90
19948;BMP180;10135;50.702;7.276;2023-09-07T15:49:22;99681.00;;;30.90
19948;BMP180;10135;50.702;7.276;2023-09-07T15:51:23;99679.00;;;30.90
19948;BMP180;10135;50.702;7.276;2023-09-07T15:53:23;99677.00;;;30.90
19948;BMP180;10135;50.702;7.276;2023-09-07T15:55:24;99680.00;;;30.90
19948;BMP180;10135;50.702;7.276;2023-09-07T15:57:25;99679.00;;;30.80
19948;BMP180;10135;50.702;7.276;2023-09-07T15:59:26;99675.00;;;30.80
19948;BMP180;10135;50.702;7.276;2023-09-07T16:01:26;99669.00;;;30.80
19948;BMP180;10135;50.702;7.276;2023-09-07T16:03:27;99670.00;;;30.80
19948;BMP180;10135;50.702;7.276;2023-09-07T16:05:28;99670.00;;;30.80
19948;BMP180;10135;50.702;7.276;2023-09-07T16:07:28;99667.00;;;30.70
19948;BMP180;10135;50.702;7.276;2023-09-07T16:09:30;99667.00;;;30.70
19948;BMP180;10135;50.702;7.276;2023-09-07T16:11:30;99666.00;;;30.70
19948;BMP180;10135;50.702;7.276;2023-09-07T16:13:31;99667.00;;;30.70
19948;BMP180;10135;50.702;7.276;2023-09-07T16:15:32;99661.00;;;30.70
19948;BMP180;10135;50.702;7.276;2023-09-07T16:17:33;99666.00;;;30.70
19948;BMP180;10135;50.702;7.276;2023-09-07T16:19:34;99664.00;;;30.70
19948;BMP180;10135;50.702;7.276;2023-09-07T16:21:35;99664.00;;;30.60
19948;BMP180;10135;50.702;7.276;2023-09-07T16:23:35;99663.00;;;30.60
19948;BMP180;10135;50.702;7.276;2023-09-07T16:25:36;99659.00;;;30.60
19948;BMP180;10135;50.702;7.276;2023-09-07T16:27:37;99654.00;;;30.60
19948;BMP180;10135;50.702;7.276;2023-09-07T16:29:41;99659.00;;;30.60
19948;BMP180;10135;50.702;7.276;2023-09-07T16:31:43;99660.00;;;30.50
19948;BMP180;10135;50.702;7.276;2023-09-07T16:33:44;99658.00;;;30.50
19948;BMP180;10135;50.702;7.276;2023-09-07T16:35:45;99660.00;;;30.50
19948;BMP180;10135;50.702;7.276;2023-09-07T16:37:46;99656.00;;;30.50
19948;BMP180;10135;50.702;7.276;2023-09-07T16:39:47;99652.00;;;30.50